createdAt,value
2022-09-28T00:01:17.441Z,9.50
2022-09-28T00:03:45.697Z,9.50
2022-09-28T00:06:15.732Z,9.40
2022-09-28T00:08:45.376Z,9.30
2022-09-28T00:11:16.368Z,9.50
2022-09-28T00:13:46.008Z,9.50
2022-09-28T00:16:15.907Z,9.60
2022-09-28T00:18:45.615Z,9.50
2022-09-28T00:21:16.084Z,9.40
2022-09-28T00:23:59.989Z,9.40
2022-09-28T00:26:28.378Z,9.40
2022-09-28T00:28:58.469Z,9.40
2022-09-28T00:31:28.088Z,9.40
2022-09-28T00:33:57.700Z,9.50
2022-09-28T00:36:26.913Z,9.50
2022-09-28T00:38:57.332Z,9.50
2022-09-28T00:41:25.885Z,9.60
2022-09-28T00:43:54.874Z,9.50
2022-09-28T00:46:31.411Z,9.50
2022-09-28T00:49:03.428Z,9.40
2022-09-28T00:51:33.000Z,9.50
2022-09-28T00:54:05.777Z,9.50
2022-09-28T00:56:34.973Z,9.40
2022-09-28T00:59:04.687Z,9.40
2022-09-28T01:01:32.929Z,9.50
2022-09-28T01:04:02.713Z,9.30
2022-09-28T01:06:34.128Z,9.30
2022-09-28T01:09:06.880Z,9.40
2022-09-28T01:11:36.944Z,9.50
2022-09-28T01:14:07.222Z,9.50
2022-09-28T01:16:42.674Z,9.40
2022-09-28T01:19:35.158Z,9.40
2022-09-28T01:22:19.978Z,9.50
2022-09-28T01:24:55.646Z,9.60
2022-09-28T01:27:29.040Z,9.50
2022-09-28T01:30:05.320Z,9.50
2022-09-28T01:32:39.329Z,9.50
2022-09-28T01:35:11.114Z,9.40
2022-09-28T01:37:46.112Z,9.30
2022-09-28T01:40:16.578Z,9.20
2022-09-28T01:42:49.041Z,9.10
2022-09-28T01:45:21.637Z,9.20
2022-09-28T01:47:51.633Z,9.20
2022-09-28T01:50:23.418Z,9.20
2022-09-28T01:52:55.561Z,9.20
2022-09-28T01:55:32.234Z,9.20
2022-09-28T01:58:06.315Z,9.20
2022-09-28T02:00:38.465Z,9.30
2022-09-28T02:03:13.590Z,9.40
2022-09-28T02:05:46.653Z,9.40
2022-09-28T02:08:20.776Z,9.50
2022-09-28T02:10:52.092Z,9.40
2022-09-28T02:13:27.281Z,9.30
2022-09-28T02:15:59.668Z,9.30
2022-09-28T02:18:27.724Z,9.20
2022-09-28T02:21:01.810Z,9.30
2022-09-28T02:23:32.013Z,9.40
2022-09-28T02:26:04.740Z,9.40
2022-09-28T02:28:33.890Z,9.40
2022-09-28T02:31:02.348Z,9.40
2022-09-28T02:33:34.468Z,9.50
2022-09-28T02:36:03.629Z,9.40
2022-09-28T02:38:32.214Z,9.40
2022-09-28T02:41:05.843Z,9.40
2022-09-28T02:43:50.040Z,9.40
2022-09-28T02:46:27.169Z,9.30
2022-09-28T02:49:24.364Z,9.40
2022-09-28T02:52:09.220Z,9.30
2022-09-28T02:55:10.782Z,9.30
2022-09-28T02:57:51.166Z,9.40
2022-09-28T03:00:23.062Z,9.50
2022-09-28T03:03:00.817Z,9.50
2022-09-28T03:05:36.524Z,9.50
2022-09-28T03:08:07.927Z,9.50
2022-09-28T03:10:40.256Z,9.40
2022-09-28T03:13:09.619Z,9.40
2022-09-28T03:15:39.103Z,9.50
2022-09-28T03:18:07.150Z,9.50
2022-09-28T03:20:35.693Z,9.60
2022-09-28T03:23:23.802Z,9.70
2022-09-28T03:25:51.970Z,9.70
2022-09-28T03:28:21.274Z,9.70
2022-09-28T03:30:51.138Z,9.70
2022-09-28T03:33:19.726Z,9.70
2022-09-28T03:35:48.628Z,9.80
2022-09-28T03:38:16.906Z,9.80
2022-09-28T03:40:45.081Z,9.80
2022-09-28T03:43:13.115Z,9.80
2022-09-28T03:45:41.088Z,9.90
2022-09-28T03:48:10.533Z,9.80
2022-09-28T03:50:38.422Z,9.80
2022-09-28T03:53:06.445Z,9.70
2022-09-28T03:55:34.352Z,9.70
2022-09-28T03:58:02.201Z,9.70
2022-09-28T04:00:30.162Z,9.60
2022-09-28T04:02:58.220Z,9.70
2022-09-28T04:05:27.580Z,9.70
2022-09-28T04:07:57.690Z,9.70
2022-09-28T04:10:26.037Z,9.70
2022-09-28T04:12:55.885Z,9.70
2022-09-28T04:15:24.365Z,9.60
2022-09-28T04:17:52.717Z,9.60
2022-09-28T04:20:20.897Z,9.60
2022-09-28T04:22:50.348Z,9.60
2022-09-28T04:25:18.412Z,9.50
2022-09-28T04:28:03.674Z,9.50
2022-09-28T04:30:31.597Z,9.50
2022-09-28T04:32:59.470Z,9.40
2022-09-28T04:35:27.663Z,9.50
2022-09-28T04:37:57.151Z,9.50
2022-09-28T04:40:25.195Z,9.70
2022-09-28T04:42:56.263Z,9.80
2022-09-28T04:45:25.986Z,10.00
2022-09-28T04:47:54.533Z,10.00
2022-09-28T04:50:22.482Z,10.00
2022-09-28T04:52:50.419Z,10.10
2022-09-28T04:55:20.628Z,10.20
2022-09-28T04:57:57.349Z,10.00
2022-09-28T05:00:25.456Z,10.00
2022-09-28T05:02:55.206Z,9.80
2022-09-28T05:05:23.381Z,9.70
2022-09-28T05:07:51.328Z,9.50
2022-09-28T05:10:20.658Z,9.40
2022-09-28T05:12:48.542Z,9.40
2022-09-28T05:15:16.545Z,9.50
2022-09-28T05:17:44.760Z,9.50
2022-09-28T05:20:13.121Z,9.50
2022-09-28T05:22:41.060Z,9.60
2022-09-28T05:25:09.837Z,9.70
2022-09-28T05:27:39.165Z,9.90
2022-09-28T05:30:08.602Z,9.80
2022-09-28T05:32:36.614Z,9.90
2022-09-28T05:35:06.321Z,9.90
2022-09-28T05:37:36.372Z,10.00
2022-09-28T05:40:04.861Z,10.10
2022-09-28T05:42:33.054Z,10.00
2022-09-28T05:45:03.339Z,10.00
2022-09-28T05:47:31.421Z,10.10
2022-09-28T05:49:59.347Z,10.00
2022-09-28T05:52:27.398Z,10.10
2022-09-28T05:54:55.374Z,10.10
2022-09-28T05:57:23.517Z,10.10
2022-09-28T05:59:51.437Z,10.10
2022-09-28T06:02:20.930Z,10.20
2022-09-28T06:04:51.002Z,10.20
2022-09-28T06:07:19.103Z,10.20
2022-09-28T06:09:47.034Z,10.30
2022-09-28T06:12:15.869Z,10.20
2022-09-28T06:14:44.027Z,10.20
2022-09-28T06:17:12.000Z,10.20
2022-09-28T06:19:41.274Z,10.20
2022-09-28T06:22:09.221Z,10.20
2022-09-28T06:24:37.114Z,10.30
2022-09-28T06:27:05.250Z,10.20
2022-09-28T06:29:33.265Z,10.20
2022-09-28T06:32:01.269Z,10.20
2022-09-28T06:34:30.232Z,10.20
2022-09-28T06:36:59.707Z,10.20
2022-09-28T06:39:27.703Z,10.20
2022-09-28T06:41:55.643Z,10.30
2022-09-28T06:44:25.090Z,10.20
2022-09-28T06:46:53.480Z,10.10
2022-09-28T06:49:21.813Z,10.00
2022-09-28T06:51:50.029Z,9.90
2022-09-28T06:54:19.453Z,9.80
2022-09-28T06:56:47.465Z,9.80
2022-09-28T06:59:15.591Z,9.80
2022-09-28T07:01:43.754Z,9.70
2022-09-28T07:04:11.714Z,9.60
2022-09-28T07:06:39.669Z,9.50
2022-09-28T07:09:23.436Z,9.50
2022-09-28T07:11:57.074Z,9.50
2022-09-28T07:14:44.708Z,9.70
2022-09-28T07:17:14.603Z,9.70
2022-09-28T07:19:43.206Z,9.60
2022-09-28T07:22:19.000Z,9.60
2022-09-28T07:24:49.292Z,9.70
2022-09-28T07:27:19.996Z,9.70
2022-09-28T07:29:48.069Z,9.60
2022-09-28T07:32:16.037Z,9.60
2022-09-28T07:34:44.777Z,9.50
2022-09-28T07:37:13.390Z,9.60
2022-09-28T07:39:59.195Z,9.70
2022-09-28T07:42:30.151Z,9.70
2022-09-28T07:44:58.203Z,9.80
2022-09-28T07:47:32.269Z,9.80
2022-09-28T07:50:02.662Z,9.80
2022-09-28T07:52:30.731Z,9.90
2022-09-28T07:55:01.309Z,9.80
2022-09-28T07:57:35.331Z,9.80
2022-09-28T08:00:06.815Z,9.80
2022-09-28T08:02:35.440Z,9.70
2022-09-28T08:05:03.491Z,9.80
2022-09-28T08:07:32.440Z,9.80
2022-09-28T08:10:00.522Z,9.80
2022-09-28T08:12:28.745Z,9.90
2022-09-28T08:15:00.133Z,9.90
2022-09-28T08:17:28.163Z,9.90
2022-09-28T08:20:13.422Z,9.90
2022-09-28T08:22:41.470Z,9.90
2022-09-28T08:25:09.990Z,9.90
2022-09-28T08:27:37.997Z,9.90
2022-09-28T08:30:09.037Z,9.90
2022-09-28T08:32:37.100Z,10.00
2022-09-28T08:35:05.553Z,10.00
2022-09-28T08:37:33.541Z,10.10
2022-09-28T08:40:01.607Z,10.00
2022-09-28T08:42:35.814Z,10.00
2022-09-28T08:45:12.777Z,10.10
2022-09-28T08:48:07.872Z,10.10
2022-09-28T08:50:42.507Z,10.10
2022-09-28T08:53:32.409Z,10.20
2022-09-28T08:56:03.432Z,10.20
2022-09-28T08:58:37.025Z,10.30
2022-09-28T09:01:09.984Z,10.40
2022-09-28T09:03:41.863Z,10.50
2022-09-28T09:06:19.513Z,10.60
2022-09-28T09:08:58.040Z,10.60
2022-09-28T09:11:43.768Z,10.70
2022-09-28T09:14:48.749Z,10.60
2022-09-28T09:17:27.514Z,10.70
2022-09-28T09:19:59.443Z,10.70
2022-09-28T09:22:40.722Z,10.40
2022-09-28T09:25:20.367Z,10.20
2022-09-28T09:28:07.005Z,10.00
2022-09-28T09:30:45.227Z,9.80
2022-09-28T09:33:42.770Z,9.50
2022-09-28T09:36:24.040Z,9.30
2022-09-28T09:39:06.181Z,9.30
2022-09-28T09:41:47.225Z,9.20
2022-09-28T09:44:38.889Z,9.30
2022-09-28T09:47:10.933Z,9.40
2022-09-28T09:49:44.941Z,9.40
2022-09-28T09:52:19.645Z,9.30
2022-09-28T09:54:50.628Z,9.30
2022-09-28T09:57:22.711Z,9.40
2022-09-28T09:59:51.025Z,9.40
2022-09-28T10:02:25.512Z,9.50
2022-09-28T10:04:58.500Z,9.60
2022-09-28T10:07:32.361Z,9.60
2022-09-28T10:10:03.285Z,9.70
2022-09-28T10:12:32.028Z,9.80
2022-09-28T10:14:59.955Z,9.90
2022-09-28T10:17:27.907Z,10.00
2022-09-28T10:19:57.779Z,10.20
2022-09-28T10:22:28.275Z,10.20
2022-09-28T10:25:09.786Z,10.20
2022-09-28T10:27:44.224Z,10.20
2022-09-28T10:30:19.290Z,10.30
2022-09-28T10:32:49.486Z,10.20
2022-09-28T10:35:28.378Z,10.20
2022-09-28T10:38:00.274Z,10.20
2022-09-28T10:40:34.858Z,10.10
2022-09-28T10:43:04.745Z,10.20
2022-09-28T10:45:37.118Z,10.30
2022-09-28T10:48:17.440Z,10.40
2022-09-28T10:51:00.256Z,10.40
2022-09-28T10:53:28.191Z,10.50
2022-09-28T10:56:02.894Z,10.60
2022-09-28T10:58:37.938Z,10.60
2022-09-28T11:01:11.506Z,10.60
2022-09-28T11:03:50.725Z,10.70
2022-09-28T11:06:26.217Z,10.90
2022-09-28T11:08:56.897Z,11.00
2022-09-28T11:11:25.577Z,11.20
2022-09-28T11:13:56.817Z,11.20
2022-09-28T11:16:28.433Z,11.30
2022-09-28T11:18:56.910Z,11.40
2022-09-28T11:21:28.814Z,11.40
2022-09-28T11:24:05.840Z,11.50
2022-09-28T11:26:42.354Z,11.40
2022-09-28T11:29:22.990Z,11.50
2022-09-28T11:31:51.305Z,11.50
2022-09-28T11:34:41.516Z,11.40
2022-09-28T11:37:31.235Z,11.40
2022-09-28T11:40:10.835Z,11.30
2022-09-28T11:42:51.086Z,11.20
2022-09-28T11:45:41.288Z,11.10
2022-09-28T11:48:13.105Z,11.10
2022-09-28T11:50:47.901Z,11.00
2022-09-28T11:53:24.390Z,11.10
2022-09-28T11:55:59.171Z,11.20
2022-09-28T11:58:32.443Z,11.20
2022-09-28T12:01:05.774Z,11.30
2022-09-28T12:03:41.614Z,11.30
2022-09-28T12:06:15.611Z,11.30
2022-09-28T12:08:51.831Z,11.20
2022-09-28T12:11:24.286Z,11.30
2022-09-28T12:13:56.109Z,11.20
2022-09-28T12:19:20.362Z,11.20
2022-09-28T12:21:51.866Z,11.20
2022-09-28T12:24:26.117Z,11.10
2022-09-28T12:26:59.613Z,11.10
2022-09-28T12:29:33.394Z,11.10
2022-09-28T12:32:10.779Z,11.20
2022-09-28T12:34:38.878Z,11.20
2022-09-28T12:37:21.734Z,11.20
2022-09-28T12:40:17.294Z,11.20
2022-09-28T12:43:01.554Z,11.30
2022-09-28T12:46:10.353Z,11.30
2022-09-28T12:50:07.194Z,11.30
2022-09-28T12:52:08.874Z,11.40
2022-09-28T12:54:50.684Z,11.30
2022-09-28T12:57:47.543Z,11.40
2022-09-28T13:00:22.147Z,11.30
2022-09-28T13:03:38.173Z,11.20
2022-09-28T13:06:35.539Z,11.00
2022-09-28T13:09:21.494Z,10.50
2022-09-28T13:12:23.166Z,10.20
2022-09-28T13:15:24.817Z,10.10
2022-09-28T13:18:01.645Z,9.80
2022-09-28T13:20:39.957Z,9.70
2022-09-28T13:23:16.185Z,9.70
2022-09-28T13:25:51.513Z,9.80
2022-09-28T13:28:27.169Z,9.80
2022-09-28T13:33:34.949Z,9.70
2022-09-28T13:36:04.909Z,9.60
2022-09-28T13:38:51.848Z,9.50
2022-09-28T13:41:31.820Z,9.60
2022-09-28T13:44:23.856Z,9.60
2022-09-28T13:47:03.772Z,9.60
2022-09-28T13:49:41.438Z,9.70
2022-09-28T13:52:17.479Z,9.80
2022-09-28T13:54:58.347Z,9.80
2022-09-28T13:57:34.768Z,9.80
2022-09-28T14:00:11.008Z,9.90
2022-09-28T14:02:45.825Z,10.00
2022-09-28T14:05:48.607Z,10.10
2022-09-28T14:08:45.590Z,10.20
2022-09-28T14:11:42.501Z,10.10
2022-09-28T14:14:47.153Z,10.20
2022-09-28T14:18:00.079Z,10.20
2022-09-28T14:20:31.339Z,10.10
2022-09-28T14:23:25.225Z,10.10
2022-09-28T14:26:18.970Z,10.10
2022-09-28T14:29:00.325Z,10.10
2022-09-28T14:31:30.320Z,10.10
2022-09-28T14:34:01.865Z,10.20
2022-09-28T14:36:53.021Z,10.20
2022-09-28T14:39:41.516Z,10.20
2022-09-28T14:42:12.654Z,10.20
2022-09-28T14:45:21.713Z,10.30
2022-09-28T14:48:19.068Z,10.20
2022-09-28T14:50:49.892Z,10.20
2022-09-28T14:53:24.774Z,10.20
2022-09-28T14:55:56.446Z,10.30
2022-09-28T14:58:27.432Z,10.30
2022-09-28T15:01:02.058Z,10.40
2022-09-28T15:03:36.562Z,10.50
2022-09-28T15:06:06.319Z,10.50
2022-09-28T15:08:39.417Z,10.50
2022-09-28T15:11:12.169Z,10.50
2022-09-28T15:13:40.690Z,10.50
2022-09-28T15:16:11.416Z,10.50
2022-09-28T15:19:07.817Z,10.60
2022-09-28T15:21:39.957Z,10.60
2022-09-28T15:24:33.214Z,10.60
2022-09-28T15:27:05.126Z,10.60
2022-09-28T15:29:33.458Z,10.60
2022-09-28T15:32:01.784Z,10.50
2022-09-28T15:34:48.894Z,10.50
2022-09-28T15:37:21.894Z,10.50
2022-09-28T15:39:51.448Z,10.50
2022-09-28T15:42:20.285Z,10.40
2022-09-28T15:45:17.406Z,10.40
2022-09-28T15:47:45.440Z,10.30
2022-09-28T15:50:24.298Z,10.30
2022-09-28T15:52:59.111Z,10.30
2022-09-28T15:55:29.824Z,10.30
2022-09-28T15:58:16.533Z,10.30
2022-09-28T16:00:46.361Z,10.20
2022-09-28T16:03:28.997Z,10.20
2022-09-28T16:06:07.584Z,10.10
2022-09-28T16:08:42.099Z,10.20
2022-09-28T16:11:16.558Z,10.30
2022-09-28T16:14:01.673Z,10.30
2022-09-28T16:16:35.132Z,10.40
2022-09-28T16:19:04.173Z,10.30
2022-09-28T16:21:46.621Z,10.30
2022-09-28T16:24:25.527Z,10.30
2022-09-28T16:26:59.341Z,10.30
2022-09-28T16:29:35.721Z,10.30
2022-09-28T16:32:37.559Z,10.30
2022-09-28T16:35:21.367Z,10.30
2022-09-28T16:37:56.685Z,10.30
2022-09-28T16:40:26.724Z,10.30
2022-09-28T16:42:58.206Z,10.30
2022-09-28T16:45:26.278Z,10.30
2022-09-28T16:47:56.990Z,10.20
2022-09-28T16:50:26.394Z,10.20
2022-09-28T16:53:18.727Z,10.10
2022-09-28T16:55:50.412Z,10.10
2022-09-28T16:58:18.663Z,10.10
2022-09-28T17:00:46.734Z,10.00
2022-09-28T17:03:18.185Z,10.00
2022-09-28T17:05:47.165Z,10.00
2022-09-28T17:08:17.411Z,10.00
2022-09-28T17:13:40.896Z,10.00
2022-09-28T17:16:14.076Z,10.10
2022-09-28T17:18:42.737Z,10.10
2022-09-28T17:21:15.646Z,10.10
2022-09-28T17:23:43.601Z,10.00
2022-09-28T17:26:19.102Z,10.00
2022-09-28T17:28:47.243Z,10.00
2022-09-28T17:31:16.591Z,9.90
2022-09-28T17:33:44.936Z,9.80
2022-09-28T17:36:15.945Z,9.80
2022-09-28T17:38:44.192Z,9.70
2022-09-28T17:41:20.001Z,9.70
2022-09-28T17:43:48.807Z,9.70
2022-09-28T17:46:26.884Z,9.70
2022-09-28T17:48:56.643Z,9.70
2022-09-28T17:51:24.757Z,9.70
2022-09-28T17:53:53.127Z,9.70
2022-09-28T17:56:22.449Z,9.70
2022-09-28T17:58:50.514Z,9.70
2022-09-28T18:01:18.752Z,9.60
2022-09-28T18:03:46.734Z,9.70
2022-09-28T18:06:16.806Z,9.60
2022-09-28T18:08:44.690Z,9.70
2022-09-28T18:11:13.202Z,9.70
2022-09-28T18:13:43.508Z,9.70
2022-09-28T18:16:11.532Z,9.70
2022-09-28T18:18:40.000Z,9.70
2022-09-28T18:21:09.497Z,9.70
2022-09-28T18:23:38.295Z,9.60
2022-09-28T18:26:11.301Z,9.70
2022-09-28T18:28:39.631Z,9.60
2022-09-28T18:31:14.439Z,9.60
2022-09-28T18:33:43.229Z,9.50
2022-09-28T18:36:11.202Z,9.50
2022-09-28T18:38:39.784Z,9.50
2022-09-28T18:41:10.091Z,9.50
2022-09-28T18:43:38.451Z,9.60
2022-09-28T18:46:09.340Z,9.60
2022-09-28T18:48:41.567Z,9.60
2022-09-28T18:51:10.836Z,9.60
2022-09-28T18:53:39.026Z,9.60
2022-09-28T18:56:08.112Z,9.60
2022-09-28T18:58:37.009Z,9.60
2022-09-28T19:01:28.854Z,9.50
2022-09-28T19:04:00.107Z,9.60
2022-09-28T19:06:28.510Z,9.70
2022-09-28T19:08:57.391Z,9.70
2022-09-28T19:11:26.167Z,9.70
2022-09-28T19:13:54.702Z,9.70
2022-09-28T19:16:24.930Z,9.70
2022-09-28T19:18:53.563Z,9.80
2022-09-28T19:21:23.277Z,9.80
2022-09-28T19:23:53.614Z,9.70
2022-09-28T19:26:24.035Z,9.60
2022-09-28T19:28:51.995Z,9.50
2022-09-28T19:31:20.862Z,9.60
2022-09-28T19:33:48.988Z,9.50
2022-09-28T19:36:18.818Z,9.50
2022-09-28T19:38:48.265Z,9.50
2022-09-28T19:41:40.775Z,9.40
2022-09-28T19:44:13.079Z,9.50
2022-09-28T19:46:41.662Z,9.50
2022-09-28T19:49:11.945Z,9.40
2022-09-28T19:52:01.620Z,9.40
2022-09-28T19:54:36.287Z,9.40
2022-09-28T19:57:07.593Z,9.50
2022-09-28T19:59:36.509Z,9.50
2022-09-28T20:02:05.025Z,9.60
2022-09-28T20:04:33.167Z,9.60
2022-09-28T20:07:01.792Z,9.60
2022-09-28T20:09:31.338Z,9.50
2022-09-28T20:11:59.334Z,9.50
2022-09-28T20:14:32.043Z,9.50
2022-09-28T20:17:02.284Z,9.60
2022-09-28T20:19:30.214Z,9.60
2022-09-28T20:21:59.421Z,9.60
2022-09-28T20:24:28.711Z,9.60
2022-09-28T20:26:58.177Z,9.60
2022-09-28T20:29:26.648Z,9.60
2022-09-28T20:31:54.553Z,9.60
2022-09-28T20:34:22.559Z,9.60
2022-09-28T20:36:50.486Z,9.60
2022-09-28T20:39:18.587Z,9.50
2022-09-28T20:41:49.019Z,9.50
2022-09-28T20:44:18.529Z,9.50
2022-09-28T20:46:47.005Z,9.50
2022-09-28T20:49:14.970Z,9.50
2022-09-28T20:51:42.896Z,9.40
2022-09-28T20:54:10.891Z,9.40
2022-09-28T20:56:39.202Z,9.30
2022-09-28T20:59:10.970Z,9.40
2022-09-28T21:01:41.087Z,9.50
2022-09-28T21:04:10.585Z,9.50
2022-09-28T21:06:41.103Z,9.50
2022-09-28T21:09:10.839Z,9.30
2022-09-28T21:11:40.204Z,9.20
2022-09-28T21:14:10.063Z,9.10
2022-09-28T21:16:38.041Z,9.00
2022-09-28T21:19:07.705Z,8.90
2022-09-28T21:21:35.726Z,9.00
2022-09-28T21:24:03.683Z,9.10
2022-09-28T21:26:32.699Z,9.20
2022-09-28T21:29:02.493Z,9.30
2022-09-28T21:31:32.570Z,9.40
2022-09-28T21:34:01.033Z,9.40
2022-09-28T21:36:30.303Z,9.50
2022-09-28T21:38:58.421Z,9.50
2022-09-28T21:41:26.736Z,9.50
2022-09-28T21:43:54.687Z,9.30
2022-09-28T21:46:22.880Z,9.40
2022-09-28T21:48:53.279Z,9.50
2022-09-28T21:51:21.680Z,9.50
2022-09-28T21:53:50.995Z,9.60
2022-09-28T21:56:19.162Z,9.60
2022-09-28T21:58:47.723Z,9.60
2022-09-28T22:01:19.466Z,9.70
2022-09-28T22:03:49.695Z,9.70
2022-09-28T22:06:20.220Z,9.70
2022-09-28T22:08:50.522Z,9.70
2022-09-28T22:11:20.025Z,9.70
2022-09-28T22:13:49.662Z,9.80
2022-09-28T22:16:19.868Z,9.80
2022-09-28T22:18:48.443Z,9.80
2022-09-28T22:21:18.693Z,9.80
2022-09-28T22:23:46.922Z,9.80
2022-09-28T22:26:19.420Z,9.80
2022-09-28T22:28:49.473Z,9.80
2022-09-28T22:31:19.229Z,9.80
2022-09-28T22:33:47.672Z,9.70
2022-09-28T22:36:17.027Z,9.80
2022-09-28T22:38:45.614Z,9.80
2022-09-28T22:41:15.776Z,9.70
2022-09-28T22:43:45.131Z,9.70
2022-09-28T22:46:14.707Z,9.60
2022-09-28T22:48:43.294Z,9.50
2022-09-28T22:51:11.252Z,9.50
2022-09-28T22:53:39.174Z,9.40
2022-09-28T22:56:08.844Z,9.30
2022-09-28T22:58:38.421Z,9.20
2022-09-28T23:01:08.936Z,9.20
2022-09-28T23:03:37.181Z,9.20
2022-09-28T23:06:05.263Z,9.20
2022-09-28T23:08:34.424Z,9.30
2022-09-28T23:11:02.760Z,9.40
2022-09-28T23:13:31.262Z,9.40
2022-09-28T23:16:00.708Z,9.50
2022-09-28T23:18:32.595Z,9.50
2022-09-28T23:21:02.927Z,9.50
2022-09-28T23:23:31.428Z,9.40
2022-09-28T23:25:59.815Z,9.40
2022-09-28T23:28:28.389Z,9.30
2022-09-28T23:30:56.500Z,9.20
2022-09-28T23:33:24.482Z,9.10
2022-09-28T23:35:53.720Z,9.10
2022-09-28T23:38:21.629Z,9.00
2022-09-28T23:40:49.776Z,9.00
2022-09-28T23:43:17.745Z,9.00
2022-09-28T23:45:46.042Z,9.10
2022-09-28T23:48:15.155Z,9.20
2022-09-28T23:50:43.982Z,9.20
2022-09-28T23:53:14.936Z,9.20
2022-09-28T23:55:44.227Z,9.20
2022-09-28T23:58:12.921Z,9.20
